sensor_id;sensor_type;location;lat;lon;timestamp;temperature;humidity
78902;DHT22;70441;44.758;37.686;2023-11-21T00:00:26;2.83;87.69
78902;DHT22;70441;44.758;37.686;2023-11-21T00:01:28;2.84;87.65
78902;DHT22;70441;44.758;37.686;2023-11-21T00:02:30;2.88;87.64
78902;DHT22;70441;44.758;37.686;2023-11-21T00:03:31;2.90;87.83
78902;DHT22;70441;44.758;37.686;2023-11-21T00:04:33;2.90;87.68
78902;DHT22;70441;44.758;37.686;2023-11-21T00:05:34;2.90;87.61
78902;DHT22;70441;44.758;37.686;2023-11-21T00:06:36;2.90;87.50
78902;DHT22;70441;44.758;37.686;2023-11-21T00:07:38;2.91;87.57
78902;DHT22;70441;44.758;37.686;2023-11-21T00:08:39;2.91;87.65
78902;DHT22;70441;44.758;37.686;2023-11-21T00:09:41;2.91;87.66
78902;DHT22;70441;44.758;37.686;2023-11-21T00:10:43;2.93;87.73
78902;DHT22;70441;44.758;37.686;2023-11-21T00:11:45;2.91;87.76
78902;DHT22;70441;44.758;37.686;2023-11-21T00:12:46;2.91;87.82
78902;DHT22;70441;44.758;37.686;2023-11-21T00:13:50;2.91;87.54
78902;DHT22;70441;44.758;37.686;2023-11-21T00:14:51;2.95;87.78
78902;DHT22;70441;44.758;37.686;2023-11-21T00:15:53;2.98;87.60
78902;DHT22;70441;44.758;37.686;2023-11-21T00:16:54;2.98;87.48
78902;DHT22;70441;44.758;37.686;2023-11-21T00:17:56;3.00;87.72
78902;DHT22;70441;44.758;37.686;2023-11-21T00:18:57;3.01;87.61
78902;DHT22;70441;44.758;37.686;2023-11-21T00:19:59;3.04;87.58
78902;DHT22;70441;44.758;37.686;2023-11-21T00:21:00;3.07;87.13
78902;DHT22;70441;44.758;37.686;2023-11-21T00:22:02;3.07;86.99
78902;DHT22;70441;44.758;37.686;2023-11-21T00:23:03;3.11;86.80
78902;DHT22;70441;44.758;37.686;2023-11-21T00:24:05;3.11;86.95
78902;DHT22;70441;44.758;37.686;2023-11-21T00:25:07;3.09;86.85
78902;DHT22;70441;44.758;37.686;2023-11-21T00:26:10;3.11;86.99
78902;DHT22;70441;44.758;37.686;2023-11-21T00:27:12;3.12;86.91
78902;DHT22;70441;44.758;37.686;2023-11-21T00:28:14;3.15;86.77
78902;DHT22;70441;44.758;37.686;2023-11-21T00:29:16;3.16;86.86
78902;DHT22;70441;44.758;37.686;2023-11-21T00:30:18;3.22;87.05
78902;DHT22;70441;44.758;37.686;2023-11-21T00:31:21;3.25;87.01
78902;DHT22;70441;44.758;37.686;2023-11-21T00:32:22;3.23;86.78
78902;DHT22;70441;44.758;37.686;2023-11-21T00:33:24;3.22;86.50
78902;DHT22;70441;44.758;37.686;2023-11-21T00:34:26;3.22;86.37
78902;DHT22;70441;44.758;37.686;2023-11-21T00:35:29;3.23;86.45
78902;DHT22;70441;44.758;37.686;2023-11-21T00:36:33;3.25;86.43
78902;DHT22;70441;44.758;37.686;2023-11-21T00:37:36;3.27;86.62
78902;DHT22;70441;44.758;37.686;2023-11-21T00:38:38;3.29;86.63
78902;DHT22;70441;44.758;37.686;2023-11-21T00:39:42;3.27;86.70
78902;DHT22;70441;44.758;37.686;2023-11-21T00:40:43;3.29;86.81
78902;DHT22;70441;44.758;37.686;2023-11-21T00:41:45;3.30;86.80
78902;DHT22;70441;44.758;37.686;2023-11-21T00:42:47;3.27;86.92
78902;DHT22;70441;44.758;37.686;2023-11-21T00:43:49;3.29;86.74
78902;DHT22;70441;44.758;37.686;2023-11-21T00:44:50;3.29;86.94
78902;DHT22;70441;44.758;37.686;2023-11-21T00:45:52;3.32;87.00
78902;DHT22;70441;44.758;37.686;2023-11-21T00:46:53;3.30;86.86
78902;DHT22;70441;44.758;37.686;2023-11-21T00:47:55;3.30;87.02
78902;DHT22;70441;44.758;37.686;2023-11-21T00:48:57;3.33;87.15
78902;DHT22;70441;44.758;37.686;2023-11-21T00:49:58;3.33;87.08
78902;DHT22;70441;44.758;37.686;2023-11-21T00:51:00;3.35;87.24
78902;DHT22;70441;44.758;37.686;2023-11-21T00:52:02;3.36;87.23
78902;DHT22;70441;44.758;37.686;2023-11-21T00:53:04;3.33;87.29
78902;DHT22;70441;44.758;37.686;2023-11-21T00:54:05;3.33;87.43
78902;DHT22;70441;44.758;37.686;2023-11-21T00:55:08;3.35;87.32
78902;DHT22;70441;44.758;37.686;2023-11-21T00:56:09;3.35;87.46
78902;DHT22;70441;44.758;37.686;2023-11-21T00:57:11;3.36;87.53
78902;DHT22;70441;44.758;37.686;2023-11-21T00:58:13;3.33;87.51
78902;DHT22;70441;44.758;37.686;2023-11-21T00:59:15;3.33;87.67
78902;DHT22;70441;44.758;37.686;2023-11-21T01:00:17;3.35;87.54
78902;DHT22;70441;44.758;37.686;2023-11-21T01:01:18;3.30;87.33
78902;DHT22;70441;44.758;37.686;2023-11-21T01:02:20;3.32;87.53
78902;DHT22;70441;44.758;37.686;2023-11-21T01:03:22;3.30;87.66
78902;DHT22;70441;44.758;37.686;2023-11-21T01:04:24;3.30;87.83
78902;DHT22;70441;44.758;37.686;2023-11-21T01:05:25;3.32;87.91
78902;DHT22;70441;44.758;37.686;2023-11-21T01:06:27;3.33;87.88
78902;DHT22;70441;44.758;37.686;2023-11-21T01:07:29;3.33;87.86
78902;DHT22;70441;44.758;37.686;2023-11-21T01:08:31;3.32;87.81
78902;DHT22;70441;44.758;37.686;2023-11-21T01:09:32;3.32;87.55
78902;DHT22;70441;44.758;37.686;2023-11-21T01:10:34;3.32;87.65
78902;DHT22;70441;44.758;37.686;2023-11-21T01:11:36;3.29;87.92
78902;DHT22;70441;44.758;37.686;2023-11-21T01:12:38;3.30;87.87
78902;DHT22;70441;44.758;37.686;2023-11-21T01:13:40;3.30;87.69
78902;DHT22;70441;44.758;37.686;2023-11-21T01:14:42;3.29;87.75
78902;DHT22;70441;44.758;37.686;2023-11-21T01:15:44;3.32;87.72
78902;DHT22;70441;44.758;37.686;2023-11-21T01:16:46;3.27;87.69
78902;DHT22;70441;44.758;37.686;2023-11-21T01:17:47;3.30;87.70
78902;DHT22;70441;44.758;37.686;2023-11-21T01:18:49;3.30;87.76
78902;DHT22;70441;44.758;37.686;2023-11-21T01:19:50;3.29;87.59
78902;DHT22;70441;44.758;37.686;2023-11-21T01:20:52;3.29;87.26
78902;DHT22;70441;44.758;37.686;2023-11-21T01:21:54;3.29;87.33
78902;DHT22;70441;44.758;37.686;2023-11-21T01:22:56;3.29;87.49
78902;DHT22;70441;44.758;37.686;2023-11-21T01:23:57;3.29;87.24
78902;DHT22;70441;44.758;37.686;2023-11-21T01:24:59;3.29;87.52
78902;DHT22;70441;44.758;37.686;2023-11-21T01:26:00;3.32;87.46
78902;DHT22;70441;44.758;37.686;2023-11-21T01:27:02;3.30;87.21
78902;DHT22;70441;44.758;37.686;2023-11-21T01:28:05;3.30;86.86
78902;DHT22;70441;44.758;37.686;2023-11-21T01:29:07;3.32;86.80
78902;DHT22;70441;44.758;37.686;2023-11-21T01:30:09;3.32;86.69
78902;DHT22;70441;44.758;37.686;2023-11-21T01:31:13;3.33;86.64
78902;DHT22;70441;44.758;37.686;2023-11-21T01:32:15;3.30;86.92
78902;DHT22;70441;44.758;37.686;2023-11-21T01:33:17;3.32;86.95
78902;DHT22;70441;44.758;37.686;2023-11-21T01:34:19;3.33;86.92
78902;DHT22;70441;44.758;37.686;2023-11-21T01:35:21;3.35;86.25
78902;DHT22;70441;44.758;37.686;2023-11-21T01:36:23;3.36;86.36
78902;DHT22;70441;44.758;37.686;2023-11-21T01:37:31;3.36;86.21
78902;DHT22;70441;44.758;37.686;2023-11-21T01:38:32;3.35;86.34
78902;DHT22;70441;44.758;37.686;2023-11-21T01:39:35;3.35;86.54
78902;DHT22;70441;44.758;37.686;2023-11-21T01:40:36;3.37;86.55
78902;DHT22;70441;44.758;37.686;2023-11-21T01:41:38;3.35;86.36
78902;DHT22;70441;44.758;37.686;2023-11-21T01:42:40;3.37;86.55
78902;DHT22;70441;44.758;37.686;2023-11-21T01:43:42;3.39;86.49
78902;DHT22;70441;44.758;37.686;2023-11-21T01:44:44;3.37;86.70
78902;DHT22;70441;44.758;37.686;2023-11-21T01:45:45;3.35;86.60
78902;DHT22;70441;44.758;37.686;2023-11-21T01:46:47;3.37;86.53
78902;DHT22;70441;44.758;37.686;2023-11-21T01:47:49;3.36;86.43
78902;DHT22;70441;44.758;37.686;2023-11-21T01:48:50;3.36;86.71
78902;DHT22;70441;44.758;37.686;2023-11-21T01:49:52;3.36;86.90
78902;DHT22;70441;44.758;37.686;2023-11-21T01:50:54;3.39;86.77
78902;DHT22;70441;44.758;37.686;2023-11-21T01:51:55;3.36;87.01
78902;DHT22;70441;44.758;37.686;2023-11-21T01:52:57;3.37;86.89
78902;DHT22;70441;44.758;37.686;2023-11-21T01:53:59;3.39;87.06
78902;DHT22;70441;44.758;37.686;2023-11-21T01:55:00;3.37;87.22
78902;DHT22;70441;44.758;37.686;2023-11-21T01:56:02;3.40;87.13
78902;DHT22;70441;44.758;37.686;2023-11-21T01:57:04;3.40;87.08
78902;DHT22;70441;44.758;37.686;2023-11-21T01:58:08;3.42;87.18
78902;DHT22;70441;44.758;37.686;2023-11-21T01:59:10;3.39;87.19
78902;DHT22;70441;44.758;37.686;2023-11-21T02:00:13;3.37;86.98
78902;DHT22;70441;44.758;37.686;2023-11-21T02:01:18;3.35;87.20
78902;DHT22;70441;44.758;37.686;2023-11-21T02:02:20;3.36;87.21
78902;DHT22;70441;44.758;37.686;2023-11-21T02:03:21;3.37;86.88
78902;DHT22;70441;44.758;37.686;2023-11-21T02:04:23;3.33;86.88
78902;DHT22;70441;44.758;37.686;2023-11-21T02:05:25;3.36;87.15
78902;DHT22;70441;44.758;37.686;2023-11-21T02:06:27;3.37;87.53
78902;DHT22;70441;44.758;37.686;2023-11-21T02:07:32;3.37;87.32
78902;DHT22;70441;44.758;37.686;2023-11-21T02:08:33;3.36;87.57
78902;DHT22;70441;44.758;37.686;2023-11-21T02:09:34;3.36;87.59
78902;DHT22;70441;44.758;37.686;2023-11-21T02:10:39;3.33;87.76
78902;DHT22;70441;44.758;37.686;2023-11-21T02:11:41;3.36;87.78
78902;DHT22;70441;44.758;37.686;2023-11-21T02:12:44;3.37;87.89
78902;DHT22;70441;44.758;37.686;2023-11-21T02:13:45;3.39;87.81
78902;DHT22;70441;44.758;37.686;2023-11-21T02:14:48;3.37;87.55
78902;DHT22;70441;44.758;37.686;2023-11-21T02:15:49;3.40;87.76
78902;DHT22;70441;44.758;37.686;2023-11-21T02:16:55;3.39;87.70
78902;DHT22;70441;44.758;37.686;2023-11-21T02:17:58;3.39;87.48
78902;DHT22;70441;44.758;37.686;2023-11-21T02:19:00;3.39;87.58
78902;DHT22;70441;44.758;37.686;2023-11-21T02:20:02;3.42;87.56
78902;DHT22;70441;44.758;37.686;2023-11-21T02:21:05;3.42;87.57
78902;DHT22;70441;44.758;37.686;2023-11-21T02:22:07;3.40;87.56
78902;DHT22;70441;44.758;37.686;2023-11-21T02:23:08;3.40;87.59
78902;DHT22;70441;44.758;37.686;2023-11-21T02:24:10;3.40;87.77
78902;DHT22;70441;44.758;37.686;2023-11-21T02:25:11;3.39;87.90
78902;DHT22;70441;44.758;37.686;2023-11-21T02:26:13;3.42;87.82
78902;DHT22;70441;44.758;37.686;2023-11-21T02:27:14;3.43;87.88
78902;DHT22;70441;44.758;37.686;2023-11-21T02:28:21;3.47;87.88
78902;DHT22;70441;44.758;37.686;2023-11-21T02:29:27;3.47;87.62
78902;DHT22;70441;44.758;37.686;2023-11-21T02:30:29;3.47;87.47
78902;DHT22;70441;44.758;37.686;2023-11-21T02:31:32;3.46;87.49
78902;DHT22;70441;44.758;37.686;2023-11-21T02:32:34;3.49;87.42
78902;DHT22;70441;44.758;37.686;2023-11-21T02:33:35;3.44;87.31
78902;DHT22;70441;44.758;37.686;2023-11-21T02:34:37;3.46;87.44
78902;DHT22;70441;44.758;37.686;2023-11-21T02:35:39;3.43;87.44
78902;DHT22;70441;44.758;37.686;2023-11-21T02:36:40;3.44;87.46
78902;DHT22;70441;44.758;37.686;2023-11-21T02:37:42;3.40;87.19
78902;DHT22;70441;44.758;37.686;2023-11-21T02:38:43;3.44;87.51
78902;DHT22;70441;44.758;37.686;2023-11-21T02:39:44;3.44;87.48
78902;DHT22;70441;44.758;37.686;2023-11-21T02:40:46;3.46;87.64
78902;DHT22;70441;44.758;37.686;2023-11-21T02:41:47;3.42;87.37
78902;DHT22;70441;44.758;37.686;2023-11-21T02:42:49;3.43;87.56
78902;DHT22;70441;44.758;37.686;2023-11-21T02:43:52;3.43;87.68
78902;DHT22;70441;44.758;37.686;2023-11-21T02:44:54;3.46;87.71
78902;DHT22;70441;44.758;37.686;2023-11-21T02:45:55;3.44;87.55
78902;DHT22;70441;44.758;37.686;2023-11-21T02:46:57;3.46;87.61
78902;DHT22;70441;44.758;37.686;2023-11-21T02:47:58;3.44;87.61
78902;DHT22;70441;44.758;37.686;2023-11-21T02:49:03;3.46;87.66
78902;DHT22;70441;44.758;37.686;2023-11-21T02:50:07;3.44;87.43
78902;DHT22;70441;44.758;37.686;2023-11-21T02:51:09;3.47;87.42
78902;DHT22;70441;44.758;37.686;2023-11-21T02:52:11;3.47;87.60
78902;DHT22;70441;44.758;37.686;2023-11-21T02:53:12;3.47;87.66
78902;DHT22;70441;44.758;37.686;2023-11-21T02:54:13;3.50;87.65
78902;DHT22;70441;44.758;37.686;2023-11-21T02:55:15;3.50;87.59
78902;DHT22;70441;44.758;37.686;2023-11-21T02:56:16;3.50;87.62
78902;DHT22;70441;44.758;37.686;2023-11-21T02:57:18;3.49;87.36
78902;DHT22;70441;44.758;37.686;2023-11-21T02:58:19;3.49;87.38
78902;DHT22;70441;44.758;37.686;2023-11-21T02:59:20;3.50;87.45
78902;DHT22;70441;44.758;37.686;2023-11-21T03:00:22;3.50;87.38
78902;DHT22;70441;44.758;37.686;2023-11-21T03:01:25;3.52;87.51
78902;DHT22;70441;44.758;37.686;2023-11-21T03:02:27;3.52;87.46
78902;DHT22;70441;44.758;37.686;2023-11-21T03:03:28;3.53;87.50
78902;DHT22;70441;44.758;37.686;2023-11-21T03:04:30;3.50;87.38
78902;DHT22;70441;44.758;37.686;2023-11-21T03:05:33;3.53;87.45
78902;DHT22;70441;44.758;37.686;2023-11-21T03:06:36;3.53;87.58
78902;DHT22;70441;44.758;37.686;2023-11-21T03:07:38;3.52;87.53
78902;DHT22;70441;44.758;37.686;2023-11-21T03:08:40;3.54;87.63
78902;DHT22;70441;44.758;37.686;2023-11-21T03:09:43;3.53;87.63
78902;DHT22;70441;44.758;37.686;2023-11-21T03:10:45;3.53;87.53
78902;DHT22;70441;44.758;37.686;2023-11-21T03:11:46;3.56;87.62
78902;DHT22;70441;44.758;37.686;2023-11-21T03:12:48;3.56;87.31
78902;DHT22;70441;44.758;37.686;2023-11-21T03:13:49;3.54;87.44
78902;DHT22;70441;44.758;37.686;2023-11-21T03:14:51;3.52;87.34
78902;DHT22;70441;44.758;37.686;2023-11-21T03:15:53;3.56;87.43
78902;DHT22;70441;44.758;37.686;2023-11-21T03:16:55;3.52;87.41
78902;DHT22;70441;44.758;37.686;2023-11-21T03:17:57;3.56;87.57
78902;DHT22;70441;44.758;37.686;2023-11-21T03:18:58;3.54;87.48
78902;DHT22;70441;44.758;37.686;2023-11-21T03:20:00;3.54;87.39
78902;DHT22;70441;44.758;37.686;2023-11-21T03:21:02;3.53;87.63
78902;DHT22;70441;44.758;37.686;2023-11-21T03:22:04;3.54;87.70
78902;DHT22;70441;44.758;37.686;2023-11-21T03:23:08;3.57;87.75
78902;DHT22;70441;44.758;37.686;2023-11-21T03:24:10;3.57;87.72
78902;DHT22;70441;44.758;37.686;2023-11-21T03:25:13;3.56;87.65
78902;DHT22;70441;44.758;37.686;2023-11-21T03:26:14;3.56;87.77
78902;DHT22;70441;44.758;37.686;2023-11-21T03:27:15;3.56;87.78
78902;DHT22;70441;44.758;37.686;2023-11-21T03:28:17;3.56;87.77
78902;DHT22;70441;44.758;37.686;2023-11-21T03:29:19;3.56;87.85
78902;DHT22;70441;44.758;37.686;2023-11-21T03:30:20;3.54;87.87
78902;DHT22;70441;44.758;37.686;2023-11-21T03:31:22;3.53;87.84
78902;DHT22;70441;44.758;37.686;2023-11-21T03:32:23;3.53;87.61
78902;DHT22;70441;44.758;37.686;2023-11-21T03:33:25;3.53;87.57
78902;DHT22;70441;44.758;37.686;2023-11-21T03:34:28;3.54;87.47
78902;DHT22;70441;44.758;37.686;2023-11-21T03:35:29;3.57;87.45
78902;DHT22;70441;44.758;37.686;2023-11-21T03:36:31;3.56;87.25
78902;DHT22;70441;44.758;37.686;2023-11-21T03:37:33;3.56;87.19
78902;DHT22;70441;44.758;37.686;2023-11-21T03:38:36;3.54;87.28
78902;DHT22;70441;44.758;37.686;2023-11-21T03:39:37;3.52;87.11
78902;DHT22;70441;44.758;37.686;2023-11-21T03:40:38;3.49;87.21
78902;DHT22;70441;44.758;37.686;2023-11-21T03:41:41;3.49;87.35
78902;DHT22;70441;44.758;37.686;2023-11-21T03:42:43;3.49;87.46
78902;DHT22;70441;44.758;37.686;2023-11-21T03:43:44;3.46;87.56
78902;DHT22;70441;44.758;37.686;2023-11-21T03:44:49;3.46;87.41
78902;DHT22;70441;44.758;37.686;2023-11-21T03:45:50;3.46;87.53
78902;DHT22;70441;44.758;37.686;2023-11-21T03:46:52;3.49;87.45
78902;DHT22;70441;44.758;37.686;2023-11-21T03:47:53;3.47;87.55
78902;DHT22;70441;44.758;37.686;2023-11-21T03:48:55;3.52;87.59
78902;DHT22;70441;44.758;37.686;2023-11-21T03:49:56;3.50;87.60
78902;DHT22;70441;44.758;37.686;2023-11-21T03:50:57;3.52;87.50
78902;DHT22;70441;44.758;37.686;2023-11-21T03:51:59;3.50;87.34
78902;DHT22;70441;44.758;37.686;2023-11-21T03:53:00;3.52;87.46
78902;DHT22;70441;44.758;37.686;2023-11-21T03:54:03;3.54;87.54
78902;DHT22;70441;44.758;37.686;2023-11-21T03:55:08;3.54;87.38
78902;DHT22;70441;44.758;37.686;2023-11-21T03:56:11;3.56;86.92
78902;DHT22;70441;44.758;37.686;2023-11-21T03:57:14;3.53;87.07
78902;DHT22;70441;44.758;37.686;2023-11-21T03:58:15;3.53;87.10
78902;DHT22;70441;44.758;37.686;2023-11-21T03:59:16;3.53;86.90
78902;DHT22;70441;44.758;37.686;2023-11-21T04:00:18;3.56;87.05
78902;DHT22;70441;44.758;37.686;2023-11-21T04:01:22;3.54;87.27
78902;DHT22;70441;44.758;37.686;2023-11-21T04:02:23;3.59;87.28
78902;DHT22;70441;44.758;37.686;2023-11-21T04:03:27;3.60;87.32
78902;DHT22;70441;44.758;37.686;2023-11-21T04:04:28;3.61;87.19
78902;DHT22;70441;44.758;37.686;2023-11-21T04:05:29;3.61;87.25
78902;DHT22;70441;44.758;37.686;2023-11-21T04:06:30;3.61;87.20
78902;DHT22;70441;44.758;37.686;2023-11-21T04:07:35;3.63;87.10
78902;DHT22;70441;44.758;37.686;2023-11-21T04:08:36;3.64;86.96
78902;DHT22;70441;44.758;37.686;2023-11-21T04:09:38;3.64;86.88
78902;DHT22;70441;44.758;37.686;2023-11-21T04:10:39;3.66;86.99
78902;DHT22;70441;44.758;37.686;2023-11-21T04:11:40;3.63;86.87
78902;DHT22;70441;44.758;37.686;2023-11-21T04:12:41;3.63;86.75
78902;DHT22;70441;44.758;37.686;2023-11-21T04:13:43;3.64;86.75
78902;DHT22;70441;44.758;37.686;2023-11-21T04:14:45;3.63;86.85
78902;DHT22;70441;44.758;37.686;2023-11-21T04:15:47;3.64;86.82
78902;DHT22;70441;44.758;37.686;2023-11-21T04:16:48;3.66;86.81
78902;DHT22;70441;44.758;37.686;2023-11-21T04:17:49;3.64;86.67
78902;DHT22;70441;44.758;37.686;2023-11-21T04:18:50;3.66;86.65
78902;DHT22;70441;44.758;37.686;2023-11-21T04:19:52;3.64;86.59
78902;DHT22;70441;44.758;37.686;2023-11-21T04:20:53;3.60;86.36
78902;DHT22;70441;44.758;37.686;2023-11-21T04:21:55;3.60;86.53
78902;DHT22;70441;44.758;37.686;2023-11-21T04:22:56;3.60;86.36
78902;DHT22;70441;44.758;37.686;2023-11-21T04:23:57;3.60;86.20
78902;DHT22;70441;44.758;37.686;2023-11-21T04:24:59;3.61;86.28
78902;DHT22;70441;44.758;37.686;2023-11-21T04:26:00;3.60;86.28
78902;DHT22;70441;44.758;37.686;2023-11-21T04:27:03;3.61;86.49
78902;DHT22;70441;44.758;37.686;2023-11-21T04:28:04;3.59;86.44
78902;DHT22;70441;44.758;37.686;2023-11-21T04:29:05;3.61;86.39
78902;DHT22;70441;44.758;37.686;2023-11-21T04:30:07;3.60;86.55
78902;DHT22;70441;44.758;37.686;2023-11-21T04:31:09;3.60;86.70
78902;DHT22;70441;44.758;37.686;2023-11-21T04:32:10;3.59;86.61
78902;DHT22;70441;44.758;37.686;2023-11-21T04:33:11;3.61;86.63
78902;DHT22;70441;44.758;37.686;2023-11-21T04:34:13;3.60;86.58
78902;DHT22;70441;44.758;37.686;2023-11-21T04:35:14;3.61;86.65
78902;DHT22;70441;44.758;37.686;2023-11-21T04:36:16;3.60;86.75
78902;DHT22;70441;44.758;37.686;2023-11-21T04:37:17;3.60;86.55
78902;DHT22;70441;44.758;37.686;2023-11-21T04:38:18;3.60;86.62
78902;DHT22;70441;44.758;37.686;2023-11-21T04:39:20;3.63;86.59
78902;DHT22;70441;44.758;37.686;2023-11-21T04:40:21;3.66;86.82
78902;DHT22;70441;44.758;37.686;2023-11-21T04:41:22;3.64;86.57
78902;DHT22;70441;44.758;37.686;2023-11-21T04:42:24;3.63;86.76
78902;DHT22;70441;44.758;37.686;2023-11-21T04:43:25;3.67;86.87
78902;DHT22;70441;44.758;37.686;2023-11-21T04:44:26;3.68;86.60
78902;DHT22;70441;44.758;37.686;2023-11-21T04:45:28;3.68;86.55
78902;DHT22;70441;44.758;37.686;2023-11-21T04:46:29;3.67;86.55
78902;DHT22;70441;44.758;37.686;2023-11-21T04:47:31;3.66;86.34
78902;DHT22;70441;44.758;37.686;2023-11-21T04:48:32;3.66;86.53
78902;DHT22;70441;44.758;37.686;2023-11-21T04:49:34;3.63;86.47
78902;DHT22;70441;44.758;37.686;2023-11-21T04:50:35;3.64;86.52
78902;DHT22;70441;44.758;37.686;2023-11-21T04:51:37;3.63;86.81
78902;DHT22;70441;44.758;37.686;2023-11-21T04:52:39;3.61;86.97
78902;DHT22;70441;44.758;37.686;2023-11-21T04:53:40;3.60;87.08
78902;DHT22;70441;44.758;37.686;2023-11-21T04:54:42;3.64;87.10
78902;DHT22;70441;44.758;37.686;2023-11-21T04:55:44;3.66;87.13
78902;DHT22;70441;44.758;37.686;2023-11-21T04:56:46;3.63;87.29
78902;DHT22;70441;44.758;37.686;2023-11-21T04:57:47;3.66;87.08
78902;DHT22;70441;44.758;37.686;2023-11-21T04:58:49;3.67;87.02
78902;DHT22;70441;44.758;37.686;2023-11-21T04:59:53;3.66;87.01
78902;DHT22;70441;44.758;37.686;2023-11-21T05:00:55;3.67;87.11
78902;DHT22;70441;44.758;37.686;2023-11-21T05:01:57;3.68;87.09
78902;DHT22;70441;44.758;37.686;2023-11-21T05:02:58;3.68;87.04
78902;DHT22;70441;44.758;37.686;2023-11-21T05:04:00;3.70;86.79
78902;DHT22;70441;44.758;37.686;2023-11-21T05:05:02;3.66;86.96
78902;DHT22;70441;44.758;37.686;2023-11-21T05:06:04;3.68;87.02
78902;DHT22;70441;44.758;37.686;2023-11-21T05:07:06;3.66;87.20
78902;DHT22;70441;44.758;37.686;2023-11-21T05:08:07;3.68;87.09
78902;DHT22;70441;44.758;37.686;2023-11-21T05:09:09;3.68;87.19
78902;DHT22;70441;44.758;37.686;2023-11-21T05:10:13;3.68;87.09
78902;DHT22;70441;44.758;37.686;2023-11-21T05:11:28;3.67;87.03
78902;DHT22;70441;44.758;37.686;2023-11-21T05:12:33;3.68;87.30
78902;DHT22;70441;44.758;37.686;2023-11-21T05:13:38;3.66;87.09
78902;DHT22;70441;44.758;37.686;2023-11-21T05:14:40;3.70;87.28
78902;DHT22;70441;44.758;37.686;2023-11-21T05:15:43;3.70;87.28
78902;DHT22;70441;44.758;37.686;2023-11-21T05:16:45;3.68;87.30
78902;DHT22;70441;44.758;37.686;2023-11-21T05:17:47;3.64;87.32
78902;DHT22;70441;44.758;37.686;2023-11-21T05:18:51;3.66;87.23
78902;DHT22;70441;44.758;37.686;2023-11-21T05:19:52;3.67;87.41
78902;DHT22;70441;44.758;37.686;2023-11-21T05:20:54;3.67;87.55
78902;DHT22;70441;44.758;37.686;2023-11-21T05:21:55;3.64;87.47
78902;DHT22;70441;44.758;37.686;2023-11-21T05:22:57;3.66;87.35
78902;DHT22;70441;44.758;37.686;2023-11-21T05:23:59;3.64;87.37
78902;DHT22;70441;44.758;37.686;2023-11-21T05:25:02;3.66;87.46
78902;DHT22;70441;44.758;37.686;2023-11-21T05:26:05;3.64;87.51
78902;DHT22;70441;44.758;37.686;2023-11-21T05:27:06;3.66;87.56
78902;DHT22;70441;44.758;37.686;2023-11-21T05:28:07;3.68;87.45
78902;DHT22;70441;44.758;37.686;2023-11-21T05:29:09;3.67;87.41
78902;DHT22;70441;44.758;37.686;2023-11-21T05:30:12;3.68;87.33
78902;DHT22;70441;44.758;37.686;2023-11-21T05:31:15;3.64;87.29
78902;DHT22;70441;44.758;37.686;2023-11-21T05:32:17;3.64;87.53
78902;DHT22;70441;44.758;37.686;2023-11-21T05:33:18;3.68;87.58
78902;DHT22;70441;44.758;37.686;2023-11-21T05:34:20;3.66;87.38
78902;DHT22;70441;44.758;37.686;2023-11-21T05:35:22;3.66;87.57
78902;DHT22;70441;44.758;37.686;2023-11-21T05:36:23;3.66;87.52
78902;DHT22;70441;44.758;37.686;2023-11-21T05:37:25;3.64;87.37
78902;DHT22;70441;44.758;37.686;2023-11-21T05:38:28;3.64;87.44
78902;DHT22;70441;44.758;37.686;2023-11-21T05:39:29;3.64;87.45
78902;DHT22;70441;44.758;37.686;2023-11-21T05:40:31;3.63;87.26
78902;DHT22;70441;44.758;37.686;2023-11-21T05:41:32;3.63;87.37
78902;DHT22;70441;44.758;37.686;2023-11-21T05:42:35;3.66;87.40
78902;DHT22;70441;44.758;37.686;2023-11-21T05:43:37;3.67;87.49
78902;DHT22;70441;44.758;37.686;2023-11-21T05:44:41;3.68;87.45
78902;DHT22;70441;44.758;37.686;2023-11-21T05:45:43;3.73;87.29
78902;DHT22;70441;44.758;37.686;2023-11-21T05:46:45;3.74;87.35
78902;DHT22;70441;44.758;37.686;2023-11-21T05:47:46;3.75;87.36
78902;DHT22;70441;44.758;37.686;2023-11-21T05:48:47;3.75;87.18
78902;DHT22;70441;44.758;37.686;2023-11-21T05:49:49;3.78;87.10
78902;DHT22;70441;44.758;37.686;2023-11-21T05:50:52;3.77;87.26
78902;DHT22;70441;44.758;37.686;2023-11-21T05:51:54;3.82;87.15
78902;DHT22;70441;44.758;37.686;2023-11-21T05:52:55;3.78;86.92
78902;DHT22;70441;44.758;37.686;2023-11-21T05:53:56;3.79;87.11
78902;DHT22;70441;44.758;37.686;2023-11-21T05:54:58;3.81;86.68
78902;DHT22;70441;44.758;37.686;2023-11-21T05:56:00;3.79;86.92
78902;DHT22;70441;44.758;37.686;2023-11-21T05:57:01;3.79;86.95
78902;DHT22;70441;44.758;37.686;2023-11-21T05:58:02;3.81;87.28
78902;DHT22;70441;44.758;37.686;2023-11-21T05:59:04;3.81;87.00
78902;DHT22;70441;44.758;37.686;2023-11-21T06:00:07;3.79;87.10
78902;DHT22;70441;44.758;37.686;2023-11-21T06:01:22;3.79;87.04
78902;DHT22;70441;44.758;37.686;2023-11-21T06:02:24;3.81;87.03
78902;DHT22;70441;44.758;37.686;2023-11-21T06:03:26;3.77;86.77
78902;DHT22;70441;44.758;37.686;2023-11-21T06:04:28;3.77;87.11
78902;DHT22;70441;44.758;37.686;2023-11-21T06:05:29;3.81;87.16
78902;DHT22;70441;44.758;37.686;2023-11-21T06:06:33;3.79;87.18
78902;DHT22;70441;44.758;37.686;2023-11-21T06:07:38;3.79;87.04
78902;DHT22;70441;44.758;37.686;2023-11-21T06:08:41;3.81;87.00
78902;DHT22;70441;44.758;37.686;2023-11-21T06:09:43;3.81;86.84
78902;DHT22;70441;44.758;37.686;2023-11-21T06:10:46;3.78;86.82
78902;DHT22;70441;44.758;37.686;2023-11-21T06:11:50;3.81;86.99
78902;DHT22;70441;44.758;37.686;2023-11-21T06:12:52;3.82;86.59
78902;DHT22;70441;44.758;37.686;2023-11-21T06:13:53;3.81;86.82
78902;DHT22;70441;44.758;37.686;2023-11-21T06:14:56;3.84;86.75
78902;DHT22;70441;44.758;37.686;2023-11-21T06:15:57;3.84;86.70
78902;DHT22;70441;44.758;37.686;2023-11-21T06:17:01;3.81;86.44
78902;DHT22;70441;44.758;37.686;2023-11-21T06:18:03;3.85;86.49
78902;DHT22;70441;44.758;37.686;2023-11-21T06:19:04;3.82;86.21
78902;DHT22;70441;44.758;37.686;2023-11-21T06:20:10;3.84;86.17
78902;DHT22;70441;44.758;37.686;2023-11-21T06:21:15;3.84;86.22
78902;DHT22;70441;44.758;37.686;2023-11-21T06:22:17;3.88;86.49
78902;DHT22;70441;44.758;37.686;2023-11-21T06:23:20;3.89;86.45
78902;DHT22;70441;44.758;37.686;2023-11-21T06:24:22;3.91;86.37
78902;DHT22;70441;44.758;37.686;2023-11-21T06:25:25;3.95;86.36
78902;DHT22;70441;44.758;37.686;2023-11-21T06:26:27;3.96;86.07
78902;DHT22;70441;44.758;37.686;2023-11-21T06:27:28;3.95;86.18
78902;DHT22;70441;44.758;37.686;2023-11-21T06:28:30;3.94;86.03
78902;DHT22;70441;44.758;37.686;2023-11-21T06:29:32;3.88;85.89
78902;DHT22;70441;44.758;37.686;2023-11-21T06:30:35;3.91;86.26
78902;DHT22;70441;44.758;37.686;2023-11-21T06:31:37;3.94;86.39